Terminal Aerodrome Forecast
Issued by NWS Omaha/Valley, NE

Home | Current Version | Previous Version | Graphics & Text | Print | Product List | Glossary On
Versions: 1 2 3 4 5 6 7 8 9 10 11 12 13 14 15 16 17 18 19 20 21 22 23 24 25 26 27 28 29 30 31 32 33 34 35 36 37 38 39 40 41
000
FTUS43 KOAX 172320
TAFOFK
TAF
KOFK 172320Z 1800/1824 09004KT P6SM SCT015 OVC050
     FM180400 14004KT P6SM SCT012 OVC040
      TEMPO 1806/1809 BKN012
     FM180900 12005KT 4SM BR OVC009
      TEMPO 1809/1813 1 1/2SM BR OVC006
     FM181700 16005KT P6SM OVC015=

USA.gov is the U.S. government's official web portal to all federal, state and local government web resources and services.